sensor_id;sensor_type;location;lat;lon;timestamp;temperature;humidity
35531;DHT22;21637;53.352;-6.356;2023-09-08T00:01:56;17.60;99.90
35531;DHT22;21637;53.352;-6.356;2023-09-08T00:04:22;17.50;99.90
35531;DHT22;21637;53.352;-6.356;2023-09-08T00:06:49;17.50;99.90
35531;DHT22;21637;53.352;-6.356;2023-09-08T00:09:15;17.50;99.90
35531;DHT22;21637;53.352;-6.356;2023-09-08T00:11:40;17.50;99.90
35531;DHT22;21637;53.352;-6.356;2023-09-08T00:14:06;17.50;99.90
35531;DHT22;21637;53.352;-6.356;2023-09-08T00:16:32;17.40;99.90
35531;DHT22;21637;53.352;-6.356;2023-09-08T00:18:58;17.40;99.90
35531;DHT22;21637;53.352;-6.356;2023-09-08T00:21:24;17.40;99.90
35531;DHT22;21637;53.352;-6.356;2023-09-08T00:23:51;17.40;99.90
35531;DHT22;21637;53.352;-6.356;2023-09-08T00:26:17;17.40;99.90
35531;DHT22;21637;53.352;-6.356;2023-09-08T00:28:43;17.40;99.90
35531;DHT22;21637;53.352;-6.356;2023-09-08T00:31:08;17.40;99.90
35531;DHT22;21637;53.352;-6.356;2023-09-08T00:33:34;17.40;99.90
35531;DHT22;21637;53.352;-6.356;2023-09-08T00:36:00;17.30;99.90
35531;DHT22;21637;53.352;-6.356;2023-09-08T00:38:26;17.30;99.90
35531;DHT22;21637;53.352;-6.356;2023-09-08T00:40:52;17.40;99.90
35531;DHT22;21637;53.352;-6.356;2023-09-08T00:43:18;17.40;99.90
35531;DHT22;21637;53.352;-6.356;2023-09-08T00:45:44;17.40;99.90
35531;DHT22;21637;53.352;-6.356;2023-09-08T00:48:11;17.30;99.90
35531;DHT22;21637;53.352;-6.356;2023-09-08T00:50:38;17.30;99.90
35531;DHT22;21637;53.352;-6.356;2023-09-08T00:53:05;17.30;99.90
35531;DHT22;21637;53.352;-6.356;2023-09-08T00:55:31;17.30;99.90
35531;DHT22;21637;53.352;-6.356;2023-09-08T00:57:58;17.20;99.90
35531;DHT22;21637;53.352;-6.356;2023-09-08T01:00:25;17.10;99.90
35531;DHT22;21637;53.352;-6.356;2023-09-08T01:02:50;17.10;99.90
35531;DHT22;21637;53.352;-6.356;2023-09-08T01:05:16;17.10;99.90
35531;DHT22;21637;53.352;-6.356;2023-09-08T01:07:42;17.10;99.90
35531;DHT22;21637;53.352;-6.356;2023-09-08T01:10:09;17.20;99.90
35531;DHT22;21637;53.352;-6.356;2023-09-08T01:12:35;17.20;99.90
35531;DHT22;21637;53.352;-6.356;2023-09-08T01:15:04;17.10;99.90
35531;DHT22;21637;53.352;-6.356;2023-09-08T01:17:30;17.20;99.90
35531;DHT22;21637;53.352;-6.356;2023-09-08T01:19:58;17.20;99.90
35531;DHT22;21637;53.352;-6.356;2023-09-08T01:25:15;17.20;99.90
35531;DHT22;21637;53.352;-6.356;2023-09-08T01:27:48;17.20;99.90
35531;DHT22;21637;53.352;-6.356;2023-09-08T01:30:16;17.20;99.90
35531;DHT22;21637;53.352;-6.356;2023-09-08T01:32:42;17.00;99.90
35531;DHT22;21637;53.352;-6.356;2023-09-08T01:35:09;17.00;99.90
35531;DHT22;21637;53.352;-6.356;2023-09-08T01:37:36;16.90;99.90
35531;DHT22;21637;53.352;-6.356;2023-09-08T01:40:05;16.90;99.90
35531;DHT22;21637;53.352;-6.356;2023-09-08T01:42:30;16.80;99.90
35531;DHT22;21637;53.352;-6.356;2023-09-08T01:44:56;16.80;99.90
35531;DHT22;21637;53.352;-6.356;2023-09-08T01:47:22;16.80;99.90
35531;DHT22;21637;53.352;-6.356;2023-09-08T01:49:47;16.80;99.90
35531;DHT22;21637;53.352;-6.356;2023-09-08T01:52:13;16.80;99.90
35531;DHT22;21637;53.352;-6.356;2023-09-08T01:54:39;16.80;99.90
35531;DHT22;21637;53.352;-6.356;2023-09-08T01:57:04;16.80;99.90
35531;DHT22;21637;53.352;-6.356;2023-09-08T01:59:30;16.90;99.90
35531;DHT22;21637;53.352;-6.356;2023-09-08T02:01:56;16.90;99.90
35531;DHT22;21637;53.352;-6.356;2023-09-08T02:04:21;16.90;99.90
35531;DHT22;21637;53.352;-6.356;2023-09-08T02:06:47;16.90;99.90
35531;DHT22;21637;53.352;-6.356;2023-09-08T02:09:14;16.80;99.90
35531;DHT22;21637;53.352;-6.356;2023-09-08T02:11:40;16.80;99.90
35531;DHT22;21637;53.352;-6.356;2023-09-08T02:14:07;16.80;99.90
35531;DHT22;21637;53.352;-6.356;2023-09-08T02:16:33;16.70;99.90
35531;DHT22;21637;53.352;-6.356;2023-09-08T02:18:58;16.80;99.90
35531;DHT22;21637;53.352;-6.356;2023-09-08T02:21:24;16.70;99.90
35531;DHT22;21637;53.352;-6.356;2023-09-08T02:23:50;16.80;99.90
35531;DHT22;21637;53.352;-6.356;2023-09-08T02:26:16;16.70;99.90
35531;DHT22;21637;53.352;-6.356;2023-09-08T02:28:41;16.80;99.90
35531;DHT22;21637;53.352;-6.356;2023-09-08T02:31:07;16.80;99.90
35531;DHT22;21637;53.352;-6.356;2023-09-08T02:33:32;16.90;99.90
35531;DHT22;21637;53.352;-6.356;2023-09-08T02:36:05;16.90;99.90
35531;DHT22;21637;53.352;-6.356;2023-09-08T02:38:32;16.90;99.90
35531;DHT22;21637;53.352;-6.356;2023-09-08T02:40:57;16.90;99.90
35531;DHT22;21637;53.352;-6.356;2023-09-08T02:43:23;16.90;99.90
35531;DHT22;21637;53.352;-6.356;2023-09-08T02:45:49;17.00;99.90
35531;DHT22;21637;53.352;-6.356;2023-09-08T02:48:15;16.90;99.90
35531;DHT22;21637;53.352;-6.356;2023-09-08T02:50:43;16.90;99.90
35531;DHT22;21637;53.352;-6.356;2023-09-08T02:53:09;16.80;99.90
35531;DHT22;21637;53.352;-6.356;2023-09-08T02:55:35;16.80;99.90
35531;DHT22;21637;53.352;-6.356;2023-09-08T02:58:00;16.80;99.90
35531;DHT22;21637;53.352;-6.356;2023-09-08T03:00:26;16.80;99.90
35531;DHT22;21637;53.352;-6.356;2023-09-08T03:02:52;16.80;99.90
35531;DHT22;21637;53.352;-6.356;2023-09-08T03:05:17;16.80;99.90
35531;DHT22;21637;53.352;-6.356;2023-09-08T03:07:43;16.80;99.90
35531;DHT22;21637;53.352;-6.356;2023-09-08T03:10:09;16.80;99.90
35531;DHT22;21637;53.352;-6.356;2023-09-08T03:12:35;16.70;99.90
35531;DHT22;21637;53.352;-6.356;2023-09-08T03:15:02;16.70;99.90
35531;DHT22;21637;53.352;-6.356;2023-09-08T03:17:28;16.60;99.90
35531;DHT22;21637;53.352;-6.356;2023-09-08T03:19:53;16.70;99.90
35531;DHT22;21637;53.352;-6.356;2023-09-08T03:22:19;16.60;99.90
35531;DHT22;21637;53.352;-6.356;2023-09-08T03:24:45;16.60;99.90
35531;DHT22;21637;53.352;-6.356;2023-09-08T03:27:10;16.60;99.90
35531;DHT22;21637;53.352;-6.356;2023-09-08T03:29:36;16.60;99.90
35531;DHT22;21637;53.352;-6.356;2023-09-08T03:32:02;16.60;99.90
35531;DHT22;21637;53.352;-6.356;2023-09-08T03:34:28;16.70;99.90
35531;DHT22;21637;53.352;-6.356;2023-09-08T03:36:54;16.70;99.90
35531;DHT22;21637;53.352;-6.356;2023-09-08T03:39:19;16.70;99.90
35531;DHT22;21637;53.352;-6.356;2023-09-08T03:41:46;16.70;99.90
35531;DHT22;21637;53.352;-6.356;2023-09-08T03:44:11;16.70;99.90
35531;DHT22;21637;53.352;-6.356;2023-09-08T03:46:37;16.60;99.90
35531;DHT22;21637;53.352;-6.356;2023-09-08T03:49:03;16.60;99.90
35531;DHT22;21637;53.352;-6.356;2023-09-08T03:51:29;16.50;99.90
35531;DHT22;21637;53.352;-6.356;2023-09-08T03:53:54;16.50;99.90
35531;DHT22;21637;53.352;-6.356;2023-09-08T03:56:20;16.40;99.90
35531;DHT22;21637;53.352;-6.356;2023-09-08T03:58:47;16.40;99.90
35531;DHT22;21637;53.352;-6.356;2023-09-08T04:01:13;16.50;99.90
35531;DHT22;21637;53.352;-6.356;2023-09-08T04:03:38;16.60;99.90
35531;DHT22;21637;53.352;-6.356;2023-09-08T04:06:04;16.60;99.90
35531;DHT22;21637;53.352;-6.356;2023-09-08T04:08:30;16.70;99.90
35531;DHT22;21637;53.352;-6.356;2023-09-08T04:10:55;16.60;99.90
35531;DHT22;21637;53.352;-6.356;2023-09-08T04:13:21;16.50;99.90
35531;DHT22;21637;53.352;-6.356;2023-09-08T04:15:47;16.50;99.90
35531;DHT22;21637;53.352;-6.356;2023-09-08T04:18:12;16.60;99.90
35531;DHT22;21637;53.352;-6.356;2023-09-08T04:20:39;16.50;99.90
35531;DHT22;21637;53.352;-6.356;2023-09-08T04:23:04;16.60;99.90
35531;DHT22;21637;53.352;-6.356;2023-09-08T04:25:30;16.60;99.90
35531;DHT22;21637;53.352;-6.356;2023-09-08T04:27:56;16.50;99.90
35531;DHT22;21637;53.352;-6.356;2023-09-08T04:30:22;16.50;99.90
35531;DHT22;21637;53.352;-6.356;2023-09-08T04:32:47;16.50;99.90
35531;DHT22;21637;53.352;-6.356;2023-09-08T04:35:13;16.40;99.90
35531;DHT22;21637;53.352;-6.356;2023-09-08T04:37:39;16.40;99.90
35531;DHT22;21637;53.352;-6.356;2023-09-08T04:40:06;16.40;99.90
35531;DHT22;21637;53.352;-6.356;2023-09-08T04:42:33;16.40;99.90
35531;DHT22;21637;53.352;-6.356;2023-09-08T04:44:59;16.40;99.90
35531;DHT22;21637;53.352;-6.356;2023-09-08T04:47:24;16.50;99.90
35531;DHT22;21637;53.352;-6.356;2023-09-08T04:49:50;16.50;99.90
35531;DHT22;21637;53.352;-6.356;2023-09-08T04:52:16;16.50;99.90
35531;DHT22;21637;53.352;-6.356;2023-09-08T04:54:41;16.50;99.90
35531;DHT22;21637;53.352;-6.356;2023-09-08T04:57:07;16.60;99.90
35531;DHT22;21637;53.352;-6.356;2023-09-08T04:59:33;16.50;99.90
35531;DHT22;21637;53.352;-6.356;2023-09-08T05:01:59;16.50;99.90
35531;DHT22;21637;53.352;-6.356;2023-09-08T05:04:24;16.50;99.90
35531;DHT22;21637;53.352;-6.356;2023-09-08T05:06:50;16.50;99.90
35531;DHT22;21637;53.352;-6.356;2023-09-08T05:09:16;16.50;99.90
35531;DHT22;21637;53.352;-6.356;2023-09-08T05:11:41;16.50;99.90
35531;DHT22;21637;53.352;-6.356;2023-09-08T05:14:07;16.50;99.90
35531;DHT22;21637;53.352;-6.356;2023-09-08T05:16:33;16.40;99.90
35531;DHT22;21637;53.352;-6.356;2023-09-08T05:19:04;16.40;99.90
35531;DHT22;21637;53.352;-6.356;2023-09-08T05:21:31;16.40;99.90
35531;DHT22;21637;53.352;-6.356;2023-09-08T05:23:56;16.40;99.90
35531;DHT22;21637;53.352;-6.356;2023-09-08T05:26:22;16.40;99.90
35531;DHT22;21637;53.352;-6.356;2023-09-08T05:28:48;16.40;99.90
35531;DHT22;21637;53.352;-6.356;2023-09-08T05:31:13;16.40;99.90
35531;DHT22;21637;53.352;-6.356;2023-09-08T05:33:39;16.50;99.90
35531;DHT22;21637;53.352;-6.356;2023-09-08T05:36:05;16.50;99.90
35531;DHT22;21637;53.352;-6.356;2023-09-08T05:38:31;16.50;99.90
35531;DHT22;21637;53.352;-6.356;2023-09-08T05:40:56;16.50;99.90
35531;DHT22;21637;53.352;-6.356;2023-09-08T05:43:24;16.50;99.90
35531;DHT22;21637;53.352;-6.356;2023-09-08T05:45:50;16.50;99.90
35531;DHT22;21637;53.352;-6.356;2023-09-08T05:48:16;16.60;99.90
35531;DHT22;21637;53.352;-6.356;2023-09-08T05:50:42;16.60;99.90
35531;DHT22;21637;53.352;-6.356;2023-09-08T05:53:08;16.60;99.90
35531;DHT22;21637;53.352;-6.356;2023-09-08T05:55:34;16.70;99.90
35531;DHT22;21637;53.352;-6.356;2023-09-08T05:57:59;16.60;99.90
35531;DHT22;21637;53.352;-6.356;2023-09-08T06:00:25;16.60;99.90
35531;DHT22;21637;53.352;-6.356;2023-09-08T06:02:51;16.60;99.90
35531;DHT22;21637;53.352;-6.356;2023-09-08T06:05:17;16.50;99.90
35531;DHT22;21637;53.352;-6.356;2023-09-08T06:07:43;16.50;99.90
35531;DHT22;21637;53.352;-6.356;2023-09-08T06:10:09;16.60;99.90
35531;DHT22;21637;53.352;-6.356;2023-09-08T06:12:35;16.60;99.90
35531;DHT22;21637;53.352;-6.356;2023-09-08T06:15:02;16.60;99.90
35531;DHT22;21637;53.352;-6.356;2023-09-08T06:17:28;16.70;99.90
35531;DHT22;21637;53.352;-6.356;2023-09-08T06:19:54;16.70;99.90
35531;DHT22;21637;53.352;-6.356;2023-09-08T06:22:20;16.60;99.90
35531;DHT22;21637;53.352;-6.356;2023-09-08T06:24:45;16.70;99.90
35531;DHT22;21637;53.352;-6.356;2023-09-08T06:27:11;16.70;99.90
35531;DHT22;21637;53.352;-6.356;2023-09-08T06:29:38;16.70;99.90
35531;DHT22;21637;53.352;-6.356;2023-09-08T06:32:06;16.70;99.90
35531;DHT22;21637;53.352;-6.356;2023-09-08T06:34:32;16.80;99.90
35531;DHT22;21637;53.352;-6.356;2023-09-08T06:36:59;16.90;99.90
35531;DHT22;21637;53.352;-6.356;2023-09-08T06:39:25;17.00;99.90
35531;DHT22;21637;53.352;-6.356;2023-09-08T06:41:52;17.10;99.90
35531;DHT22;21637;53.352;-6.356;2023-09-08T06:44:20;17.10;99.90
35531;DHT22;21637;53.352;-6.356;2023-09-08T06:46:46;17.10;99.90
35531;DHT22;21637;53.352;-6.356;2023-09-08T06:49:11;17.20;99.90
35531;DHT22;21637;53.352;-6.356;2023-09-08T06:51:37;17.30;99.90
35531;DHT22;21637;53.352;-6.356;2023-09-08T06:54:04;17.40;99.90
35531;DHT22;21637;53.352;-6.356;2023-09-08T06:56:30;17.50;99.90
35531;DHT22;21637;53.352;-6.356;2023-09-08T06:58:56;17.50;99.90
35531;DHT22;21637;53.352;-6.356;2023-09-08T07:01:24;17.50;99.90
35531;DHT22;21637;53.352;-6.356;2023-09-08T07:03:49;17.50;99.90
35531;DHT22;21637;53.352;-6.356;2023-09-08T07:06:16;17.60;99.90
35531;DHT22;21637;53.352;-6.356;2023-09-08T07:08:42;17.50;99.90
35531;DHT22;21637;53.352;-6.356;2023-09-08T07:11:07;17.50;99.90
35531;DHT22;21637;53.352;-6.356;2023-09-08T07:13:34;17.50;99.90
35531;DHT22;21637;53.352;-6.356;2023-09-08T07:15:59;17.50;99.90
35531;DHT22;21637;53.352;-6.356;2023-09-08T07:18:25;17.50;99.90
35531;DHT22;21637;53.352;-6.356;2023-09-08T07:20:51;17.70;99.90
35531;DHT22;21637;53.352;-6.356;2023-09-08T07:23:17;17.80;99.90
35531;DHT22;21637;53.352;-6.356;2023-09-08T07:25:50;18.00;99.90
35531;DHT22;21637;53.352;-6.356;2023-09-08T07:28:16;18.10;99.90
35531;DHT22;21637;53.352;-6.356;2023-09-08T07:30:42;18.30;99.90
35531;DHT22;21637;53.352;-6.356;2023-09-08T07:33:08;18.40;99.90
35531;DHT22;21637;53.352;-6.356;2023-09-08T07:35:40;18.50;99.90
35531;DHT22;21637;53.352;-6.356;2023-09-08T07:38:06;18.70;99.90
35531;DHT22;21637;53.352;-6.356;2023-09-08T07:40:35;18.80;99.90
35531;DHT22;21637;53.352;-6.356;2023-09-08T07:43:01;19.00;99.90
35531;DHT22;21637;53.352;-6.356;2023-09-08T07:45:28;19.10;99.90
35531;DHT22;21637;53.352;-6.356;2023-09-08T07:47:53;19.30;99.90
35531;DHT22;21637;53.352;-6.356;2023-09-08T07:50:27;19.40;99.90
35531;DHT22;21637;53.352;-6.356;2023-09-08T07:52:55;19.50;99.90
35531;DHT22;21637;53.352;-6.356;2023-09-08T07:55:21;19.60;99.90
35531;DHT22;21637;53.352;-6.356;2023-09-08T07:57:53;19.80;99.90
35531;DHT22;21637;53.352;-6.356;2023-09-08T08:00:19;19.90;99.90
35531;DHT22;21637;53.352;-6.356;2023-09-08T08:02:47;20.00;99.90
35531;DHT22;21637;53.352;-6.356;2023-09-08T08:05:13;20.10;99.90
35531;DHT22;21637;53.352;-6.356;2023-09-08T08:07:39;20.30;99.90
35531;DHT22;21637;53.352;-6.356;2023-09-08T08:10:06;20.40;99.90
35531;DHT22;21637;53.352;-6.356;2023-09-08T08:12:32;20.50;99.90
35531;DHT22;21637;53.352;-6.356;2023-09-08T08:14:58;20.60;99.90
35531;DHT22;21637;53.352;-6.356;2023-09-08T08:17:26;20.70;99.90
35531;DHT22;21637;53.352;-6.356;2023-09-08T08:19:54;20.80;99.90
35531;DHT22;21637;53.352;-6.356;2023-09-08T08:22:20;20.80;99.90
35531;DHT22;21637;53.352;-6.356;2023-09-08T08:24:45;20.90;99.90
35531;DHT22;21637;53.352;-6.356;2023-09-08T08:27:11;20.90;99.90
35531;DHT22;21637;53.352;-6.356;2023-09-08T08:29:38;21.00;99.90
35531;DHT22;21637;53.352;-6.356;2023-09-08T08:32:04;21.10;99.90
35531;DHT22;21637;53.352;-6.356;2023-09-08T08:34:29;21.20;99.90
35531;DHT22;21637;53.352;-6.356;2023-09-08T08:36:56;21.30;99.90
35531;DHT22;21637;53.352;-6.356;2023-09-08T08:39:21;21.40;99.90
35531;DHT22;21637;53.352;-6.356;2023-09-08T08:41:47;21.40;99.90
35531;DHT22;21637;53.352;-6.356;2023-09-08T08:44:13;21.50;99.90
35531;DHT22;21637;53.352;-6.356;2023-09-08T08:46:41;21.60;99.90
35531;DHT22;21637;53.352;-6.356;2023-09-08T08:49:09;21.70;99.90
35531;DHT22;21637;53.352;-6.356;2023-09-08T08:51:37;21.60;99.90
35531;DHT22;21637;53.352;-6.356;2023-09-08T08:54:04;21.70;99.90
35531;DHT22;21637;53.352;-6.356;2023-09-08T08:56:34;21.70;99.90
35531;DHT22;21637;53.352;-6.356;2023-09-08T08:59:01;21.90;99.90
35531;DHT22;21637;53.352;-6.356;2023-09-08T09:01:27;21.90;99.90
35531;DHT22;21637;53.352;-6.356;2023-09-08T09:03:54;22.00;99.90
35531;DHT22;21637;53.352;-6.356;2023-09-08T09:06:21;22.00;99.90
35531;DHT22;21637;53.352;-6.356;2023-09-08T09:08:46;22.10;99.90
35531;DHT22;21637;53.352;-6.356;2023-09-08T09:11:12;22.20;99.90
35531;DHT22;21637;53.352;-6.356;2023-09-08T09:13:38;22.20;99.90
35531;DHT22;21637;53.352;-6.356;2023-09-08T09:16:05;22.30;99.90
35531;DHT22;21637;53.352;-6.356;2023-09-08T09:21:18;22.40;99.90
35531;DHT22;21637;53.352;-6.356;2023-09-08T09:23:44;22.50;99.90
35531;DHT22;21637;53.352;-6.356;2023-09-08T09:26:10;22.60;99.90
35531;DHT22;21637;53.352;-6.356;2023-09-08T09:28:48;22.80;99.90
35531;DHT22;21637;53.352;-6.356;2023-09-08T09:31:14;22.80;99.90
35531;DHT22;21637;53.352;-6.356;2023-09-08T09:33:39;22.90;99.90
35531;DHT22;21637;53.352;-6.356;2023-09-08T09:36:06;22.90;99.90
35531;DHT22;21637;53.352;-6.356;2023-09-08T09:38:35;22.90;99.90
35531;DHT22;21637;53.352;-6.356;2023-09-08T09:41:00;23.00;99.90
35531;DHT22;21637;53.352;-6.356;2023-09-08T09:43:28;23.00;99.90
35531;DHT22;21637;53.352;-6.356;2023-09-08T09:45:54;23.10;99.90
35531;DHT22;21637;53.352;-6.356;2023-09-08T09:48:21;23.10;99.90
35531;DHT22;21637;53.352;-6.356;2023-09-08T09:50:48;23.20;99.90
35531;DHT22;21637;53.352;-6.356;2023-09-08T09:53:16;23.20;99.90
35531;DHT22;21637;53.352;-6.356;2023-09-08T09:55:44;23.30;99.90
35531;DHT22;21637;53.352;-6.356;2023-09-08T09:58:11;23.30;99.90
35531;DHT22;21637;53.352;-6.356;2023-09-08T10:00:37;23.40;99.90
35531;DHT22;21637;53.352;-6.356;2023-09-08T10:03:06;23.50;99.90
35531;DHT22;21637;53.352;-6.356;2023-09-08T10:05:33;23.60;99.90
35531;DHT22;21637;53.352;-6.356;2023-09-08T10:07:59;23.60;99.90
35531;DHT22;21637;53.352;-6.356;2023-09-08T10:10:27;23.70;99.90
35531;DHT22;21637;53.352;-6.356;2023-09-08T10:13:02;23.70;99.90
35531;DHT22;21637;53.352;-6.356;2023-09-08T10:15:28;23.70;99.90
35531;DHT22;21637;53.352;-6.356;2023-09-08T10:17:56;23.70;99.90
35531;DHT22;21637;53.352;-6.356;2023-09-08T10:20:26;23.70;99.90
35531;DHT22;21637;53.352;-6.356;2023-09-08T10:23:06;23.70;99.90
35531;DHT22;21637;53.352;-6.356;2023-09-08T10:25:37;23.80;99.90
35531;DHT22;21637;53.352;-6.356;2023-09-08T10:28:05;23.70;99.90
35531;DHT22;21637;53.352;-6.356;2023-09-08T10:30:33;23.70;99.90
35531;DHT22;21637;53.352;-6.356;2023-09-08T10:33:00;23.80;99.90
35531;DHT22;21637;53.352;-6.356;2023-09-08T10:35:26;23.80;99.90
35531;DHT22;21637;53.352;-6.356;2023-09-08T10:38:22;23.80;99.90
35531;DHT22;21637;53.352;-6.356;2023-09-08T10:40:49;23.80;99.90
35531;DHT22;21637;53.352;-6.356;2023-09-08T10:43:15;23.90;99.90
35531;DHT22;21637;53.352;-6.356;2023-09-08T10:45:40;23.80;99.90
35531;DHT22;21637;53.352;-6.356;2023-09-08T10:48:09;23.80;99.90
35531;DHT22;21637;53.352;-6.356;2023-09-08T10:50:40;23.80;99.90
35531;DHT22;21637;53.352;-6.356;2023-09-08T10:53:19;23.90;99.90
35531;DHT22;21637;53.352;-6.356;2023-09-08T10:55:46;23.90;99.90
35531;DHT22;21637;53.352;-6.356;2023-09-08T11:00:47;23.90;99.90
35531;DHT22;21637;53.352;-6.356;2023-09-08T11:03:13;24.00;99.90
35531;DHT22;21637;53.352;-6.356;2023-09-08T11:05:41;24.00;99.90
35531;DHT22;21637;53.352;-6.356;2023-09-08T11:08:08;24.10;99.90
35531;DHT22;21637;53.352;-6.356;2023-09-08T11:10:34;24.10;99.90
35531;DHT22;21637;53.352;-6.356;2023-09-08T11:13:00;24.00;99.90
35531;DHT22;21637;53.352;-6.356;2023-09-08T11:15:28;24.00;99.90
35531;DHT22;21637;53.352;-6.356;2023-09-08T11:17:54;24.10;99.90
35531;DHT22;21637;53.352;-6.356;2023-09-08T11:20:26;24.10;99.90
35531;DHT22;21637;53.352;-6.356;2023-09-08T11:22:52;24.20;99.90
35531;DHT22;21637;53.352;-6.356;2023-09-08T11:25:18;24.10;99.90
35531;DHT22;21637;53.352;-6.356;2023-09-08T11:27:45;24.00;99.90
35531;DHT22;21637;53.352;-6.356;2023-09-08T11:30:12;24.00;99.90
35531;DHT22;21637;53.352;-6.356;2023-09-08T11:32:39;24.00;99.90
35531;DHT22;21637;53.352;-6.356;2023-09-08T11:35:09;24.10;99.90
35531;DHT22;21637;53.352;-6.356;2023-09-08T11:37:40;24.10;99.90
35531;DHT22;21637;53.352;-6.356;2023-09-08T11:40:07;24.10;99.90
35531;DHT22;21637;53.352;-6.356;2023-09-08T11:42:43;24.10;99.90
35531;DHT22;21637;53.352;-6.356;2023-09-08T11:45:11;24.20;99.90
35531;DHT22;21637;53.352;-6.356;2023-09-08T11:47:43;24.20;99.90
35531;DHT22;21637;53.352;-6.356;2023-09-08T11:50:10;24.30;99.90
35531;DHT22;21637;53.352;-6.356;2023-09-08T11:52:42;24.40;99.90
35531;DHT22;21637;53.352;-6.356;2023-09-08T11:55:10;24.50;99.90
35531;DHT22;21637;53.352;-6.356;2023-09-08T11:57:37;24.60;99.90
35531;DHT22;21637;53.352;-6.356;2023-09-08T12:00:03;24.70;99.90
35531;DHT22;21637;53.352;-6.356;2023-09-08T12:02:37;24.70;99.90
35531;DHT22;21637;53.352;-6.356;2023-09-08T12:05:03;24.60;99.90
35531;DHT22;21637;53.352;-6.356;2023-09-08T12:07:29;24.60;99.90
35531;DHT22;21637;53.352;-6.356;2023-09-08T12:09:55;24.70;99.90
35531;DHT22;21637;53.352;-6.356;2023-09-08T12:12:21;24.60;99.90
35531;DHT22;21637;53.352;-6.356;2023-09-08T12:14:46;24.60;99.90
35531;DHT22;21637;53.352;-6.356;2023-09-08T12:17:12;24.60;99.90
35531;DHT22;21637;53.352;-6.356;2023-09-08T12:19:42;24.60;99.90
35531;DHT22;21637;53.352;-6.356;2023-09-08T12:22:08;24.60;99.90
35531;DHT22;21637;53.352;-6.356;2023-09-08T12:24:56;24.70;99.90
35531;DHT22;21637;53.352;-6.356;2023-09-08T12:27:22;24.80;99.90
35531;DHT22;21637;53.352;-6.356;2023-09-08T12:30:01;24.90;99.90
35531;DHT22;21637;53.352;-6.356;2023-09-08T12:32:30;25.00;99.90
35531;DHT22;21637;53.352;-6.356;2023-09-08T12:34:56;25.00;99.90
35531;DHT22;21637;53.352;-6.356;2023-09-08T12:37:26;25.10;99.90
35531;DHT22;21637;53.352;-6.356;2023-09-08T12:39:56;25.00;99.90
35531;DHT22;21637;53.352;-6.356;2023-09-08T12:42:22;25.10;99.90
35531;DHT22;21637;53.352;-6.356;2023-09-08T12:44:51;25.00;99.90
35531;DHT22;21637;53.352;-6.356;2023-09-08T12:47:18;25.10;99.90
35531;DHT22;21637;53.352;-6.356;2023-09-08T12:49:44;25.10;99.90
35531;DHT22;21637;53.352;-6.356;2023-09-08T12:52:09;25.10;99.90
35531;DHT22;21637;53.352;-6.356;2023-09-08T12:54:35;25.10;99.90
35531;DHT22;21637;53.352;-6.356;2023-09-08T12:57:02;25.10;99.90
35531;DHT22;21637;53.352;-6.356;2023-09-08T12:59:27;25.10;99.90
35531;DHT22;21637;53.352;-6.356;2023-09-08T13:01:53;25.20;99.90
35531;DHT22;21637;53.352;-6.356;2023-09-08T13:04:19;25.10;99.90
35531;DHT22;21637;53.352;-6.356;2023-09-08T13:06:45;25.10;99.90
35531;DHT22;21637;53.352;-6.356;2023-09-08T13:09:11;25.10;99.90
35531;DHT22;21637;53.352;-6.356;2023-09-08T13:11:37;25.00;99.90
35531;DHT22;21637;53.352;-6.356;2023-09-08T13:14:03;25.00;99.90
35531;DHT22;21637;53.352;-6.356;2023-09-08T13:16:28;25.00;99.90
35531;DHT22;21637;53.352;-6.356;2023-09-08T13:18:54;25.00;99.90
35531;DHT22;21637;53.352;-6.356;2023-09-08T13:21:20;24.90;99.90
35531;DHT22;21637;53.352;-6.356;2023-09-08T13:23:46;24.80;99.90
35531;DHT22;21637;53.352;-6.356;2023-09-08T13:26:12;24.80;99.90
35531;DHT22;21637;53.352;-6.356;2023-09-08T13:28:38;24.70;99.90
35531;DHT22;21637;53.352;-6.356;2023-09-08T13:31:03;24.70;99.90
35531;DHT22;21637;53.352;-6.356;2023-09-08T13:33:29;24.70;99.90
35531;DHT22;21637;53.352;-6.356;2023-09-08T13:35:55;24.70;99.90
35531;DHT22;21637;53.352;-6.356;2023-09-08T13:38:21;24.70;99.90
35531;DHT22;21637;53.352;-6.356;2023-09-08T13:40:47;24.60;99.90
35531;DHT22;21637;53.352;-6.356;2023-09-08T13:43:13;24.60;99.90
35531;DHT22;21637;53.352;-6.356;2023-09-08T13:45:39;24.60;99.90
35531;DHT22;21637;53.352;-6.356;2023-09-08T13:48:06;24.60;99.90
35531;DHT22;21637;53.352;-6.356;2023-09-08T13:50:32;24.60;99.90
35531;DHT22;21637;53.352;-6.356;2023-09-08T13:52:58;24.60;99.90
35531;DHT22;21637;53.352;-6.356;2023-09-08T13:55:24;24.70;99.90
35531;DHT22;21637;53.352;-6.356;2023-09-08T13:57:50;24.80;99.90
35531;DHT22;21637;53.352;-6.356;2023-09-08T14:00:17;24.80;99.90
35531;DHT22;21637;53.352;-6.356;2023-09-08T14:02:43;24.80;99.90
35531;DHT22;21637;53.352;-6.356;2023-09-08T14:05:09;24.80;99.90
35531;DHT22;21637;53.352;-6.356;2023-09-08T14:07:35;24.80;99.90
35531;DHT22;21637;53.352;-6.356;2023-09-08T14:10:01;24.90;99.90
35531;DHT22;21637;53.352;-6.356;2023-09-08T14:12:27;24.90;99.90
35531;DHT22;21637;53.352;-6.356;2023-09-08T14:14:53;24.90;99.90
35531;DHT22;21637;53.352;-6.356;2023-09-08T14:17:19;24.90;99.90
35531;DHT22;21637;53.352;-6.356;2023-09-08T14:19:46;24.80;99.90
35531;DHT22;21637;53.352;-6.356;2023-09-08T14:22:12;24.90;99.90
35531;DHT22;21637;53.352;-6.356;2023-09-08T14:24:38;24.90;99.90
35531;DHT22;21637;53.352;-6.356;2023-09-08T14:27:03;25.00;99.90
35531;DHT22;21637;53.352;-6.356;2023-09-08T14:29:29;25.20;99.90
35531;DHT22;21637;53.352;-6.356;2023-09-08T14:31:55;25.30;99.90
35531;DHT22;21637;53.352;-6.356;2023-09-08T14:34:20;25.40;99.90
35531;DHT22;21637;53.352;-6.356;2023-09-08T14:36:46;25.50;99.90
35531;DHT22;21637;53.352;-6.356;2023-09-08T14:39:13;25.50;99.90
35531;DHT22;21637;53.352;-6.356;2023-09-08T14:41:39;25.50;99.90
35531;DHT22;21637;53.352;-6.356;2023-09-08T14:44:05;25.50;99.90
35531;DHT22;21637;53.352;-6.356;2023-09-08T14:46:30;25.60;99.90
35531;DHT22;21637;53.352;-6.356;2023-09-08T14:48:56;25.60;99.90
35531;DHT22;21637;53.352;-6.356;2023-09-08T14:51:22;25.50;99.90
35531;DHT22;21637;53.352;-6.356;2023-09-08T14:53:47;25.50;99.90
35531;DHT22;21637;53.352;-6.356;2023-09-08T14:56:13;25.50;99.90
35531;DHT22;21637;53.352;-6.356;2023-09-08T14:58:39;25.30;99.90
35531;DHT22;21637;53.352;-6.356;2023-09-08T15:01:04;25.20;99.90
35531;DHT22;21637;53.352;-6.356;2023-09-08T15:03:33;25.20;99.90
35531;DHT22;21637;53.352;-6.356;2023-09-08T15:05:59;25.20;99.90
35531;DHT22;21637;53.352;-6.356;2023-09-08T15:08:25;25.20;99.90
35531;DHT22;21637;53.352;-6.356;2023-09-08T15:10:51;25.10;99.90
35531;DHT22;21637;53.352;-6.356;2023-09-08T15:13:17;25.10;99.90
35531;DHT22;21637;53.352;-6.356;2023-09-08T15:15:42;25.00;99.90
35531;DHT22;21637;53.352;-6.356;2023-09-08T15:18:08;25.00;99.90
35531;DHT22;21637;53.352;-6.356;2023-09-08T15:20:34;25.10;99.90